Stations météo

réclame
Mon MeteoGroup
Zeebrugge, Belgique (6418): Température de l'air & dewpoint: 20.10.2020 22:00:00 - 26.10.2020 22:00:00 (CET)Zeebrugge, Belgique (6418): Vitesse du vent & gusts: 20.10.2020 22:00:00 - 26.10.2020 22:00:00 (CET)Zeebrugge, Belgique (6418): Direction du vent: 20.10.2020 22:00:00 - 26.10.2020 22:00:00 (CET)Zeebrugge, Belgique (6418): reduced air pressure: 20.10.2020 22:00:00 - 26.10.2020 22:00:00 (CET)Zeebrugge, Belgique (6418): Ensoleillement: 20.10.2020 22:00:00 - 26.10.2020 22:00:00 (CET)Zeebrugge, Belgique (6418): Quantités de précipitations: 20.10.2020 22:00:00 - 26.10.2020 22:00:00 (CET)
Date & Time tt [°C] td [°C] ff [km/h] ff [knt] fx [km/h] fx [knt] dd ppp [hPa] sd [min] rr [mm]
26.10.2020 22:00:00 10,0 7,9 27 14 38 20 SSW 1001,5 0 0,0
26.10.2020 21:00:00 10,6 8,2 29 16 41 22 SSW 1000,7 0 0,0
26.10.2020 20:00:00 10,7 8,2 26 14 46 25 SSW 1000,6 0 0,0
26.10.2020 19:00:00 11,2 8,4 29 16 43 23 SSW 1000,2 0 0,1
26.10.2020 18:00:00 11,3 8,0 29 16 48 26 SSW 999,7 0 0,1
26.10.2020 17:00:00 11,6 8,1 35 19 46 25 SSW 999,2 19 0,0
26.10.2020 16:00:00 11,7 7,6 36 20 57 31 SSW 999,3 27 0,0
26.10.2020 15:00:00 12,0 7,7 41 22 60 32 SSW 999,0 47 0,0
26.10.2020 14:00:00 12,4 7,8 40 22 65 35 SSW 999,0 59 0,0
26.10.2020 13:00:00 11,7 8,1 40 21 61 33 SSW 999,3 60 0,0
26.10.2020 12:00:00 10,9 7,8 42 23 58 32 SSW 999,3 60 0,0
26.10.2020 11:00:00 10,5 8,0 38 20 54 29 SSW 999,5 60 0,1
26.10.2020 10:00:00 9,6 7,6 34 18 47 25 S 999,7 50 0,0
26.10.2020 09:00:00 9,0 7,2 31 17 40 22 S 999,6 31 0,1
26.10.2020 08:00:00 8,9 7,2 31 17 45 25 S 999,1 0 0,0
26.10.2020 07:00:00 8,9 7,3 29 16 39 21 S 998,7 0 0,0
26.10.2020 06:00:00 8,7 7,2 27 15 37 20 S 998,7 0 0,0
26.10.2020 05:00:00 8,9 7,2 26 14 39 21 S 998,3 0 0,0
26.10.2020 04:00:00 8,7 6,8 29 16 35 19 S 998,8 0 0,0
26.10.2020 03:00:00 9,1 6,8 24 13 35 19 SSW 998,7 0 0,0
26.10.2020 02:00:00 9,7 7,1 26 14 37 20 SSW 999,3 0 0,0
26.10.2020 01:00:00 9,9 7,1 29 16 36 19 S 999,6 0 0,0
26.10.2020 00:00:00 10,1 6,9 27 15 35 19 S 999,6 0 0,0
25.10.2020 23:00:00 10,4 6,9 25 13 35 19 S 999,6 0 0,0
25.10.2020 22:00:00 11,1 8,0 29 15 37 20 S 999,6 0 0,0
25.10.2020 21:00:00 11,4 8,7 26 14 37 20 S 999,6 0 0,0
25.10.2020 20:00:00 11,1 9,0 23 13 32 17 S 999,6 0 0,0
25.10.2020 19:00:00 10,8 8,9 18 10 25 14 S 1000,1 0 0,6
25.10.2020 18:00:00 10,6 8,2 13 7 31 17 SSW 1000,4 0 2,2
25.10.2020 17:00:00 10,0 6,5 17 9 38 20 SW 999,9 5 4,4
25.10.2020 16:00:00 13,2 9,5 28 15 39 21 S 999,0 37 0,0
25.10.2020 15:00:00 13,0 9,6 29 16 40 21 S 999,3 2 0,0
25.10.2020 14:00:00 12,9 10,0 25 14 41 22 S 999,9 0 0,0
25.10.2020 13:00:00 12,5 10,2 29 16 40 21 S 1000,6 6 0,0
25.10.2020 12:00:00 12,1 10,0 24 13 36 20 S 1000,6 0 0,0
25.10.2020 11:00:00 11,9 9,9 23 12 34 19 S 1000,6 0 0,0
25.10.2020 10:00:00 11,8 10,0 25 14 36 19 S 1000,7 0 0,0
25.10.2020 09:00:00 11,6 10,0 25 13 37 20 S 1000,8 0 0,0
25.10.2020 08:00:00 11,4 9,6 29 16 39 21 S 1000,3 0 0,0
25.10.2020 07:00:00 11,5 9,3 29 16 44 24 SSW 1000,5 0 0,3
25.10.2020 06:00:00 12,0 9,6 34 18 50 27 SSW 999,3 0 0,3
25.10.2020 05:00:00 12,4 9,8 29 16 52 28 SSW 999,1 0 0,5
25.10.2020 04:00:00 13,5 10,7 36 19 68 37 SW 999,9 0 0,2
25.10.2020 03:00:00 14,4 10,7 39 21 67 36 S 998,9 0 0,1
25.10.2020 02:00:00 15,3 11,0 45 25 73 39 S 999,4 0 0,0
25.10.2020 01:00:00 - - - - - - - - - -
25.10.2020 00:00:00 15,8 11,7 50 27 77 41 S 1000,0 0 0,1
24.10.2020 23:00:00 15,8 12,0 56 30 73 39 S 1000,1 0 0,1
24.10.2020 22:00:00 15,8 12,1 49 26 74 40 S 1000,9 0 0,1
24.10.2020 21:00:00 15,9 12,4 45 24 65 35 S 1001,7 0 0,1
24.10.2020 20:00:00 15,9 12,4 48 26 68 37 S 1002,7 0 0,1
24.10.2020 19:00:00 15,9 12,3 43 23 60 33 S 1003,0 0 0,0
24.10.2020 18:00:00 15,7 12,4 39 21 57 31 S 1004,1 0 0,1
24.10.2020 17:00:00 15,5 12,1 37 20 54 29 S 1005,3 0 0,0
24.10.2020 16:00:00 15,8 12,3 39 21 53 29 S 1006,0 0 0,0
24.10.2020 15:00:00 15,4 11,6 32 18 51 28 S 1006,8 3 0,0
24.10.2020 14:00:00 15,2 11,9 39 21 56 31 S 1007,4 5 0,0
24.10.2020 13:00:00 14,7 11,3 39 21 54 29 S 1008,1 6 0,0
24.10.2020 12:00:00 14,5 11,3 36 19 54 29 S 1008,9 38 0,0
24.10.2020 11:00:00 13,7 11,2 31 17 54 29 S 1009,4 57 0,0
24.10.2020 10:00:00 13,2 11,3 31 17 48 26 S 1009,6 60 0,0
24.10.2020 09:00:00 12,6 10,9 29 16 46 25 S 1009,7 3 0,0
24.10.2020 08:00:00 12,4 10,8 29 16 46 25 S 1009,7 0 0,1
24.10.2020 07:00:00 12,4 10,8 32 18 43 23 S 1009,9 0 0,0
24.10.2020 06:00:00 12,1 10,4 22 12 29 15 S 1010,2 0 0,0
24.10.2020 05:00:00 11,9 9,7 22 12 32 17 S 1010,7 0 0,0
24.10.2020 04:00:00 12,2 10,1 23 12 33 18 SSW 1011,0 0 0,0
24.10.2020 03:00:00 12,1 10,3 24 13 35 19 SSW 1011,5 0 0,0
24.10.2020 02:00:00 12,0 9,9 24 13 38 21 SSW 1011,7 0 0,0
24.10.2020 01:00:00 12,6 10,0 29 16 45 24 SSW 1011,4 0 0,0
24.10.2020 00:00:00 12,9 10,1 28 15 37 20 SSW 1011,1 0 0,0
23.10.2020 23:00:00 12,9 10,2 22 12 30 16 S 1011,3 0 0,0
23.10.2020 22:00:00 12,8 9,5 21 11 30 16 SSW 1011,3 0 0,0
23.10.2020 21:00:00 13,8 10,6 23 13 48 26 SW 1010,6 0 0,0
23.10.2020 20:00:00 14,2 11,1 24 13 38 21 SW 1010,5 0 0,1
23.10.2020 19:00:00 14,3 10,6 29 16 35 19 SSW 1009,9 0 0,0
23.10.2020 18:00:00 14,9 10,4 28 15 40 21 SSW 1009,7 1 0,0
23.10.2020 17:00:00 15,6 10,5 28 15 41 22 SSW 1009,2 9 0,0
23.10.2020 16:00:00 16,0 10,8 29 15 39 21 SSW 1009,2 16 0,0
23.10.2020 15:00:00 16,4 11,8 27 15 35 19 SSW 1009,1 30 0,0
23.10.2020 14:00:00 16,4 12,6 24 13 39 21 SW 1009,7 48 0,0
23.10.2020 13:00:00 16,0 14,2 22 12 30 16 SSW 1009,4 60 0,0
23.10.2020 12:00:00 14,6 13,4 19 11 32 17 SSW 1009,7 47 0,0
23.10.2020 11:00:00 13,1 12,2 18 10 23 13 S 1010,1 35 0,0
23.10.2020 10:00:00 12,2 11,3 17 9 24 13 S 1010,1 27 0,0
23.10.2020 09:00:00 11,0 10,0 10 6 16 9 S 1010,2 3 0,0
23.10.2020 08:00:00 10,9 9,8 10 5 16 8 S 1010,2 0 0,0
23.10.2020 07:00:00 11,1 9,8 11 6 19 10 S 1010,1 0 0,0
23.10.2020 06:00:00 11,2 9,7 14 8 18 10 SSE 1010,2 0 0,0
23.10.2020 05:00:00 11,9 10,3 9 5 12 7 SSW 1010,6 0 0,0
23.10.2020 04:00:00 11,9 10,3 8 4 13 7 S 1011,1 0 0,0
23.10.2020 03:00:00 12,3 10,6 8 5 15 8 S 1011,6 0 0,0
23.10.2020 02:00:00 12,2 10,5 11 6 19 10 S 1011,9 0 0,0
23.10.2020 01:00:00 11,8 9,9 11 6 17 9 SSW 1012,1 0 0,0
23.10.2020 00:00:00 12,2 10,2 14 7 21 12 SW 1012,0 0 0,0
22.10.2020 23:00:00 12,3 10,0 15 8 21 12 SW 1012,0 0 0,0
22.10.2020 22:00:00 12,6 10,0 16 9 23 13 SSW 1012,2 0 0,0
22.10.2020 21:00:00 12,9 10,2 16 9 25 13 SSW 1012,0 0 0,0
22.10.2020 20:00:00 13,5 10,5 14 8 24 13 SW 1011,6 0 0,0
22.10.2020 19:00:00 13,7 10,3 18 10 21 12 SSW 1011,6 0 0,0
22.10.2020 18:00:00 14,8 10,3 19 10 31 17 SW 1011,1 33 0,0
22.10.2020 17:00:00 15,8 10,3 19 11 36 19 SW 1010,7 60 0,0
22.10.2020 16:00:00 16,1 10,3 27 14 44 24 SW 1010,4 60 0,0
22.10.2020 15:00:00 16,0 11,7 26 14 38 20 SSW 1010,4 48 0,0
22.10.2020 14:00:00 15,2 11,7 32 17 42 23 SSW 1010,2 38 0,1
22.10.2020 13:00:00 14,7 11,2 25 14 41 22 SSW 1010,9 0 0,0
22.10.2020 12:00:00 14,7 11,5 26 14 37 20 S 1010,8 5 0,0
22.10.2020 11:00:00 13,9 11,3 25 14 39 21 S 1010,7 8 0,0
22.10.2020 10:00:00 12,9 10,6 27 15 37 20 S 1010,4 48 0,0
22.10.2020 09:00:00 12,7 10,7 27 15 38 21 S 1010,1 49 0,0
22.10.2020 08:00:00 12,1 10,3 24 13 35 19 SSW 1009,3 11 0,0
22.10.2020 07:00:00 12,5 10,7 29 16 38 21 SSW 1008,6 0 0,0
22.10.2020 06:00:00 12,6 10,8 24 13 38 21 SSW 1008,6 0 0,0
22.10.2020 05:00:00 13,0 11,2 28 15 40 22 SSW 1008,5 0 0,0
22.10.2020 04:00:00 13,3 11,5 29 15 38 20 SSW 1008,2 0 0,0
22.10.2020 03:00:00 13,8 12,0 26 14 38 20 SSW 1007,7 0 0,0
22.10.2020 02:00:00 14,1 12,4 23 12 34 18 SSW 1007,8 0 0,0
22.10.2020 01:00:00 14,1 12,4 25 14 35 19 SSW 1007,4 0 0,0
22.10.2020 00:00:00 14,4 12,5 30 16 42 23 SSW 1006,5 0 0,0
21.10.2020 23:00:00 14,7 12,5 27 15 38 21 SSW 1006,0 0 0,0
21.10.2020 22:00:00 14,3 11,9 26 14 35 19 SSW 1005,5 0 0,0
21.10.2020 21:00:00 14,7 11,8 26 14 49 26 SSW 1004,9 0 0,0
21.10.2020 20:00:00 15,7 12,7 34 19 56 30 SW 1003,8 0 0,1
21.10.2020 19:00:00 15,8 12,9 47 25 72 39 SSW 1002,0 0 0,1
21.10.2020 18:00:00 15,9 12,9 45 24 69 37 SW 999,9 0 0,2
21.10.2020 17:00:00 17,7 11,8 52 28 73 39 SSW 998,8 0 0,0
21.10.2020 16:00:00 18,0 13,3 47 25 71 38 SSW 997,4 2 0,0
21.10.2020 15:00:00 17,7 13,0 51 28 91 49 SSW 996,1 13 0,2
21.10.2020 14:00:00 19,0 12,9 56 30 87 47 S 993,9 3 0,1
21.10.2020 13:00:00 18,6 12,7 47 25 82 44 S 994,5 6 0,1
21.10.2020 12:00:00 17,5 13,0 54 29 78 42 S 994,3 21 0,0
21.10.2020 11:00:00 15,0 13,3 38 20 49 26 SSE 995,6 0 0,0
21.10.2020 10:00:00 13,6 12,4 33 18 50 27 SSE 997,1 0 0,1
21.10.2020 09:00:00 13,4 12,2 39 21 53 29 SSE 998,3 0 0,1
21.10.2020 08:00:00 13,3 12,2 34 18 52 28 SSE 998,7 0 0,1
21.10.2020 07:00:00 13,2 12,1 32 18 40 22 SSE 999,2 0 1,1
21.10.2020 06:00:00 13,4 12,2 27 15 38 21 SSE 1000,6 0 0,2
21.10.2020 05:00:00 13,5 12,1 24 13 39 21 SSE 1001,3 0 0,3
21.10.2020 04:00:00 13,8 12,2 25 14 34 18 SSE 1001,7 0 0,0
21.10.2020 03:00:00 14,0 12,2 24 13 31 17 SSE 1002,6 0 0,0
21.10.2020 02:00:00 14,4 12,4 24 13 35 19 SSE 1003,4 0 0,0
21.10.2020 01:00:00 14,9 12,6 25 14 41 22 S 1003,7 0 0,0
21.10.2020 00:00:00 15,0 12,7 29 15 40 22 S 1004,2 0 0,0
20.10.2020 23:00:00 14,9 12,6 30 16 48 26 S 1004,5 0 0,0
20.10.2020 22:00:00 14,9 12,5 36 19 53 29 S 1004,5 0 0,1

tt = Température de l'air
td = dewpoint
ff = Vitesse du vent
fx = gusts
dd = Direction du vent
ppp = reduced air pressure
sd = Ensoleillement
rr = Quantités de précipitations

stations d'obs. à proximité